Time;durP1;ratioP1;P1;durP2;ratioP2;P2;SDS_P1;SDS_P2;PMS_P1;PMS_P2;Temp;Humidity;BMP_temperature;BMP_pressure;BME280_temperature;BME280_humidity;BME280_pressure;Samples;Min_cycle;Max_cycle;Signal;HPM_P1;HPM_P2
2022/12/09 00:00:33;;;;;;;4.90;2.72;;;;;;;1.80;97.98;100853.84;5098645;27;97549;-31
2022/12/09 00:02:59;;;;;;;3.60;2.22;;;;;;;1.80;98.32;100857.41;5098632;27;97862;-31
2022/12/09 00:05:24;;;;;;;6.25;3.00;;;;;;;1.79;97.98;100854.75;5098926;27;96547;-31
2022/12/09 00:07:49;;;;;;;5.00;2.92;;;;;;;1.82;98.00;100858.25;5099021;27;96720;-32
2022/12/09 00:10:14;;;;;;;6.00;1.52;;;;;;;1.81;97.67;100860.94;5098259;27;103132;-30
2022/12/09 00:12:40;;;;;;;3.25;1.92;;;;;;;1.80;98.23;100860.06;5098898;27;97160;-31
2022/12/09 00:15:06;;;;;;;2.40;1.85;;;;;;;1.80;97.54;100862.75;5098846;27;96511;-30
2022/12/09 00:17:31;;;;;;;4.05;2.00;;;;;;;1.78;98.15;100855.69;5098782;27;96811;-30
2022/12/09 00:19:56;;;;;;;3.85;2.33;;;;;;;1.80;97.98;100857.41;5097505;27;97888;-31
2022/12/09 00:22:22;;;;;;;2.95;1.60;;;;;;;1.80;98.08;100853.84;5097310;27;103737;-31
2022/12/09 00:24:47;;;;;;;3.97;2.38;;;;;;;1.78;97.75;100847.69;5098745;27;96632;-31
2022/12/09 00:27:12;;;;;;;4.32;2.45;;;;;;;1.76;97.74;100849.50;5098353;27;96778;-32
2022/12/09 00:29:37;;;;;;;2.75;1.58;;;;;;;1.72;97.66;100850.50;5098285;27;98051;-30
2022/12/09 00:32:03;;;;;;;2.50;1.90;;;;;;;1.71;97.99;100854.97;5098175;27;97848;-31
2022/12/09 00:34:28;;;;;;;6.90;2.72;;;;;;;1.72;97.81;100859.41;5098508;27;96514;-32
2022/12/09 00:36:54;;;;;;;2.42;1.88;;;;;;;1.69;97.74;100862.13;5098615;27;96742;-31
2022/12/09 00:39:19;;;;;;;1.90;1.52;;;;;;;1.65;97.98;100866.69;5097877;27;101800;-31
2022/12/09 00:41:44;;;;;;;1.33;0.80;;;;;;;1.67;97.92;100867.53;5097525;27;105491;-31
2022/12/09 00:44:10;;;;;;;1.65;0.77;;;;;;;1.68;98.14;100873.72;5097876;27;96450;-31
2022/12/09 00:46:36;;;;;;;3.47;0.93;;;;;;;1.65;98.10;100863.13;5098102;27;96791;-31
2022/12/09 00:49:02;;;;;;;2.50;1.67;;;;;;;1.65;97.76;100872.00;5097927;27;97578;-31
2022/12/09 00:51:28;;;;;;;0.73;0.70;;;;;;;1.66;97.89;100872.88;5079137;27;101335;-31
2022/12/09 00:53:54;;;;;;;1.50;1.33;;;;;;;1.65;97.93;100872.00;5098022;27;96568;-31
2022/12/09 00:56:24;;;;;;;3.05;2.17;;;;;;;1.63;97.99;100868.50;5097857;27;96831;-31
2022/12/09 00:58:49;;;;;;;1.38;1.27;;;;;;;1.63;97.66;100868.50;5097651;27;99752;-31
2022/12/09 01:01:15;;;;;;;3.15;1.50;;;;;;;1.67;97.63;100872.00;5097945;27;97753;-31
2022/12/09 01:03:40;;;;;;;2.50;1.75;;;;;;;1.66;98.02;100867.53;5098155;27;96433;-31
2022/12/09 01:06:07;;;;;;;3.33;1.88;;;;;;;1.65;97.93;100866.69;5097143;27;96705;-30
2022/12/09 01:08:33;;;;;;;4.72;2.45;;;;;;;1.65;97.82;100866.69;5078300;27;100897;-30
2022/12/09 01:10:58;;;;;;;3.97;2.25;;;;;;;1.59;97.61;100861.47;5097546;27;103194;-30
2022/12/09 01:13:23;;;;;;;3.17;2.10;;;;;;;1.53;98.06;100872.31;5097743;27;96578;-31
2022/12/09 01:15:48;;;;;;;3.13;2.22;;;;;;;1.49;97.76;100865.28;5097823;27;96770;-33
2022/12/09 01:18:14;;;;;;;3.63;2.10;;;;;;;1.52;98.12;100873.22;5097381;27;103138;-31
2022/12/09 01:20:40;;;;;;;3.80;1.52;;;;;;;1.57;97.92;100883.78;5097087;27;97995;-31
2022/12/09 01:23:05;;;;;;;2.85;2.00;;;;;;;1.53;97.72;100877.66;5078227;27;96544;-31
2022/12/09 01:25:30;;;;;;;1.80;1.27;;;;;;;1.52;97.69;100872.34;5098165;27;96785;-31
2022/12/09 01:27:56;;;;;;;2.05;1.55;;;;;;;1.45;97.66;100877.84;5097190;27;101050;-33
2022/12/09 01:30:21;;;;;;;1.50;1.15;;;;;;;1.49;98.15;100865.28;5097323;27;97795;-32
2022/12/09 01:32:46;;;;;;;2.78;2.17;;;;;;;1.52;98.09;100873.22;5097065;27;96487;-32
2022/12/09 01:35:12;;;;;;;2.30;1.80;;;;;;;1.57;97.95;100878.44;5097104;27;96770;-32
2022/12/09 01:37:37;;;;;;;2.35;2.13;;;;;;;1.59;98.12;100877.50;5078269;27;100955;-31
2022/12/09 01:40:06;;;;;;;1.90;1.17;;;;;;;1.57;98.17;100876.66;5096915;27;99249;-31
2022/12/09 01:42:32;;;;;;;2.92;1.63;;;;;;;1.59;98.05;100880.16;5078494;27;97242;-31
2022/12/09 01:45:23;;;;;;;3.33;1.58;;;;;;;1.63;97.75;100879.19;5078725;27;96759;-32
2022/12/09 01:48:04;;;;;;;3.50;2.00;;;;;;;1.63;98.03;100887.19;5078009;27;99234;-30
2022/12/09 01:50:31;;;;;;;2.80;1.25;;;;;;;1.64;97.70;100880.06;5097287;27;97837;-33
2022/12/09 01:52:57;;;;;;;1.00;0.77;;;;;;;1.65;97.53;100887.16;5078481;27;96555;-31
2022/12/09 01:55:22;;;;;;;3.40;1.85;;;;;;;1.64;97.73;100880.06;5097150;27;96719;-31
2022/12/09 01:57:48;;;;;;;3.20;2.15;;;;;;;1.65;97.79;100887.16;5077629;27;98017;-31
2022/12/09 02:00:14;;;;;;;3.78;1.83;;;;;;;1.64;97.90;100880.91;5096575;27;96560;-32
2022/12/09 02:02:43;;;;;;;2.83;2.33;;;;;;;1.61;97.25;100877.47;5097035;27;96691;-31
2022/12/09 02:05:10;;;;;;;1.63;1.20;;;;;;;1.60;97.66;100867.72;5078304;27;96764;-31
2022/12/09 02:07:36;;;;;;;2.58;1.98;;;;;;;1.58;97.83;100862.41;5077901;27;101026;-31
2022/12/09 02:10:04;;;;;;;3.47;2.15;;;;;;;1.58;97.77;100862.41;5096541;27;97913;-31
2022/12/09 02:12:49;;;;;;;2.85;1.98;;;;;;;1.61;97.64;100864.13;5078249;27;96834;-31
2022/12/09 02:15:21;;;;;;;3.70;2.00;;;;;;;1.63;97.53;100859.63;5078628;27;96825;-31
2022/12/09 02:17:54;;;;;;;4.55;2.30;;;;;;;1.65;97.57;100855.13;5077038;27;101202;-31
2022/12/09 02:20:48;;;;;;;2.50;1.55;;;;;;;1.66;97.79;100860.41;5076951;27;100826;-31
2022/12/09 02:23:30;;;;;;;2.55;1.27;;;;;;;1.67;97.48;100870.19;5073317;27;96803;-30
2022/12/09 02:26:19;;;;;;;1.92;0.90;;;;;;;1.64;97.63;100861.38;5074745;27;96705;-30
2022/12/09 02:29:06;;;;;;;1.63;1.52;;;;;;;1.65;97.64;100869.34;5075894;27;98468;-30
2022/12/09 02:32:09;;;;;;;5.50;2.53;;;;;;;1.65;97.61;100872.00;5075634;27;97296;-31
2022/12/09 02:34:41;;;;;;;0.85;0.80;;;;;;;1.64;97.63;100874.72;5076193;27;96654;-31
2022/12/09 02:37:13;;;;;;;;;;;;;;;1.62;97.16;100866.75;5074836;27;97908;-31
2022/12/09 02:39:43;;;;;;;1.67;0.85;;;;;;;1.62;97.44;100861.41;5075589;27;97519;-30
2022/12/09 02:42:14;;;;;;;3.33;2.30;;;;;;;1.61;97.26;100862.31;5074311;27;101307;-32
2022/12/09 02:44:41;;;;;;;0.82;0.40;;;;;;;1.55;97.18;100849.13;5074303;27;96698;-31
2022/12/09 02:47:12;;;;;;;2.83;2.15;;;;;;;1.57;97.70;100857.97;5074355;27;96883;-31
2022/12/09 02:49:39;;;;;;;2.97;1.48;;;;;;;1.55;97.55;100859.81;5075102;27;98015;-31
2022/12/09 02:52:06;;;;;;;1.77;1.52;;;;;;;1.54;97.42;100857.16;5073977;27;100982;-31
2022/12/09 02:54:35;;;;;;;5.03;1.77;;;;;;;1.54;97.29;100863.38;5074143;27;96664;-31
2022/12/09 02:57:07;;;;;;;3.42;2.08;;;;;;;1.51;97.06;100850.13;5074301;27;96807;-31
2022/12/09 02:59:32;;;;;;;2.45;1.42;;;;;;;1.55;97.41;100854.47;5073730;27;100849;-30
2022/12/09 03:02:11;;;;;;;6.35;1.83;;;;;;;1.55;97.65;100856.25;5074842;27;107867;-33
2022/12/09 03:04:38;;;;;;;2.90;1.40;;;;;;;1.53;97.57;100850.97;5075391;27;96807;-33
2022/12/09 03:07:27;;;;;;;3.83;3.03;;;;;;;1.56;97.54;100860.69;5074225;27;96897;-31
2022/12/09 03:10:02;;;;;;;4.07;1.58;;;;;;;1.53;97.67;100853.63;5075333;27;97329;-30
2022/12/09 03:12:32;;;;;;;3.20;2.58;;;;;;;1.53;97.49;100848.28;5073758;27;98933;-32
2022/12/09 03:14:59;;;;;;;5.03;2.70;;;;;;;1.52;96.99;100842.97;5074788;27;96728;-31
2022/12/09 03:17:34;;;;;;;4.65;2.15;;;;;;;1.53;97.08;100834.09;5073424;27;97848;-31
2022/12/09 03:20:14;;;;;;;2.60;1.75;;;;;;;1.54;97.24;100830.47;5073047;27;100809;-31
2022/12/09 03:22:42;;;;;;;1.83;1.20;;;;;;;1.49;97.10;100822.59;5080358;27;99208;-31
2022/12/09 03:25:16;;;;;;;0.93;0.65;;;;;;;1.54;97.07;100828.69;5077146;27;96560;-31
2022/12/09 03:27:49;;;;;;;1.35;1.25;;;;;;;1.52;97.11;100824.31;5077077;27;96970;-32
2022/12/09 03:30:15;;;;;;;1.25;1.20;;;;;;;1.51;96.77;100830.56;5078264;27;99996;-31
2022/12/09 03:32:43;;;;;;;4.28;1.20;;;;;;;1.41;96.54;100827.25;5099321;27;99699;-30
2022/12/09 03:35:13;;;;;;;4.10;2.15;;;;;;;1.36;96.52;100831.78;5099194;27;96614;-31
2022/12/09 03:37:42;;;;;;;2.85;2.10;;;;;;;1.31;96.56;100836.38;5099609;27;96543;-30
2022/12/09 03:40:13;;;;;;;2.75;1.92;;;;;;;1.32;96.87;100832.81;5079768;27;101001;-31
2022/12/09 03:42:52;;;;;;;2.83;1.60;;;;;;;1.32;97.21;100838.13;5080088;27;100794;-32
2022/12/09 03:45:19;;;;;;;3.30;2.60;;;;;;;1.35;97.08;100832.72;5080715;27;96641;-31
2022/12/09 03:47:44;;;;;;;3.15;2.10;;;;;;;1.37;97.30;100833.56;5080539;27;96780;-32
2022/12/09 03:50:11;;;;;;;3.08;2.45;;;;;;;1.39;97.15;100832.59;5098955;27;97888;-31
2022/12/09 03:52:42;;;;;;;2.70;1.48;;;;;;;1.36;96.93;100834.47;5080163;27;100912;-31
2022/12/09 03:55:18;;;;;;;1.90;1.27;;;;;;;1.30;96.50;100830.16;5080380;27;96560;-31
2022/12/09 03:57:47;;;;;;;4.55;2.20;;;;;;;1.26;96.59;100820.47;5099255;27;96641;-31
2022/12/09 04:00:13;;;;;;;1.23;1.05;;;;;;;1.27;96.86;100822.22;5079970;27;101583;-31
2022/12/09 04:02:39;;;;;;;3.05;2.45;;;;;;;1.32;96.85;100819.47;5079792;27;98965;-30
2022/12/09 04:05:04;;;;;;;3.08;2.15;;;;;;;1.30;96.95;100821.28;5098372;27;96715;-31
2022/12/09 04:07:30;;;;;;;6.55;3.40;;;;;;;1.33;96.68;100818.53;5099003;27;96748;-30
2022/12/09 04:09:55;;;;;;;1.88;1.42;;;;;;;1.32;96.86;100823.00;5098545;27;97241;-31
2022/12/09 04:12:20;;;;;;;1.75;1.42;;;;;;;1.31;96.63;100823.03;5098318;27;99449;-31
2022/12/09 04:14:46;;;;;;;2.72;2.17;;;;;;;1.32;96.78;100822.13;5098705;27;96700;-31
2022/12/09 04:17:11;;;;;;;1.65;1.15;;;;;;;1.32;96.42;100814.13;5099096;27;96771;-31
2022/12/09 04:19:36;;;;;;;2.88;1.83;;;;;;;1.33;96.38;100815.88;5097793;27;99266;-33
2022/12/09 04:22:03;;;;;;;3.90;2.92;;;;;;;1.30;96.42;100810.59;5097589;27;98878;-33
2022/12/09 04:24:28;;;;;;;2.65;1.85;;;;;;;1.35;96.35;100814.91;5079917;27;96695;-31
2022/12/09 04:26:54;;;;;;;2.67;1.70;;;;;;;1.32;96.21;100814.13;5080034;27;96820;-30
2022/12/09 04:29:19;;;;;;;1.45;1.05;;;;;;;1.26;96.39;100812.47;5097674;27;104330;-31
2022/12/09 04:31:44;;;;;;;2.60;1.55;;;;;;;1.25;96.15;100816.06;5098385;27;97245;-31
2022/12/09 04:34:09;;;;;;;4.25;2.25;;;;;;;1.27;96.29;100815.09;5098229;27;96654;-31
2022/12/09 04:36:35;;;;;;;1.52;0.93;;;;;;;1.28;96.88;100830.19;5098314;27;96839;-31
2022/12/09 04:39:00;;;;;;;2.83;1.85;;;;;;;1.27;96.19;100820.44;5098114;27;97581;-32
2022/12/09 04:41:25;;;;;;;4.82;2.88;;;;;;;1.26;96.26;100823.13;5096865;27;97407;-31
2022/12/09 04:43:51;;;;;;;3.50;2.67;;;;;;;1.27;96.13;100816.91;5098735;27;96448;-31
2022/12/09 04:46:16;;;;;;;1.58;1.02;;;;;;;1.29;96.54;100815.06;5098620;27;96906;-31
2022/12/09 04:48:43;;;;;;;5.47;1.50;;;;;;;1.32;96.37;100819.47;5098049;27;97456;-31
2022/12/09 04:51:10;;;;;;;1.35;1.25;;;;;;;1.31;96.47;100823.03;5079023;27;101518;-31
2022/12/09 04:53:36;;;;;;;4.28;2.67;;;;;;;1.23;95.61;100812.53;5079118;27;96662;-31
2022/12/09 04:56:10;;;;;;;2.35;2.15;;;;;;;1.30;96.09;100818.63;5098180;27;96707;-31
2022/12/09 04:58:35;;;;;;;4.35;2.22;;;;;;;1.30;96.12;100823.94;5079119;27;101118;-31
2022/12/09 05:01:06;;;;;;;2.97;2.22;;;;;;;1.23;95.89;100821.41;5097678;27;97870;-31
2022/12/09 05:03:31;;;;;;;7.53;2.53;;;;;;;1.26;96.33;100825.78;5079232;27;96548;-31
2022/12/09 05:05:56;;;;;;;2.83;1.55;;;;;;;1.27;96.01;100828.44;5098118;27;96787;-32
2022/12/09 05:08:22;;;;;;;1.98;1.77;;;;;;;1.28;96.19;100823.97;5098006;27;97775;-32
2022/12/09 05:10:49;;;;;;;3.40;1.50;;;;;;;1.21;95.85;100817.91;5098232;27;97387;-35
2022/12/09 05:13:15;;;;;;;4.07;2.70;;;;;;;1.22;95.88;100822.34;5079226;27;96464;-31
2022/12/09 05:15:40;;;;;;;2.17;1.63;;;;;;;1.23;96.01;100825.88;5079073;27;96868;-31
2022/12/09 05:18:05;;;;;;;1.90;1.48;;;;;;;1.17;95.94;100816.25;5096677;27;97232;-31
2022/12/09 05:20:31;;;;;;;2.45;1.35;;;;;;;1.20;96.37;100810.81;5096905;27;97845;-31
2022/12/09 05:22:56;;;;;;;2.50;1.58;;;;;;;1.20;96.51;100816.16;5097350;27;96685;-31
2022/12/09 05:25:22;;;;;;;3.85;2.72;;;;;;;1.22;96.26;100814.34;5097433;27;96783;-31
2022/12/09 05:27:48;;;;;;;2.60;1.95;;;;;;;1.16;96.29;100809.13;5097209;27;97951;-32
2022/12/09 05:30:13;;;;;;;2.05;1.88;;;;;;;1.16;96.09;100808.25;5097501;27;97689;-30
2022/12/09 05:32:39;;;;;;;2.45;1.42;;;;;;;1.15;96.27;100806.53;5097702;27;96468;-30
2022/12/09 05:35:04;;;;;;;2.28;1.35;;;;;;;1.17;96.13;100810.91;5079017;27;96788;-31
2022/12/09 05:37:30;;;;;;;2.67;1.88;;;;;;;1.16;96.33;100805.59;5097078;27;97980;-31
2022/12/09 05:39:55;;;;;;;8.52;2.75;;;;;;;1.15;96.10;100806.53;5096796;27;103724;-30
2022/12/09 05:42:20;;;;;;;4.00;1.95;;;;;;;1.13;95.71;100798.53;5096574;27;97578;-31
2022/12/09 05:44:46;;;;;;;4.35;2.13;;;;;;;1.08;95.71;100796.91;5097008;27;96821;-31
2022/12/09 05:47:11;;;;;;;4.72;2.35;;;;;;;1.06;95.90;100799.59;5097158;27;97715;-31
2022/12/09 05:49:37;;;;;;;1.45;1.23;;;;;;;1.03;95.60;100797.00;5096724;27;97864;-32
2022/12/09 05:52:03;;;;;;;4.05;2.05;;;;;;;1.00;95.57;100797.06;5096859;27;96584;-30
2022/12/09 05:54:29;;;;;;;2.08;1.58;;;;;;;0.93;95.48;100784.78;5078279;27;96863;-31
2022/12/09 05:56:56;;;;;;;5.78;3.22;;;;;;;0.91;95.68;100791.97;5096814;27;98018;-31
2022/12/09 05:59:22;;;;;;;2.20;1.17;;;;;;;0.88;95.35;100795.56;5097158;27;97888;-32
2022/12/09 06:01:48;;;;;;;2.90;1.85;;;;;;;0.83;95.46;100793.03;5096895;27;96687;-33
2022/12/09 06:04:13;;;;;;;2.67;2.03;;;;;;;0.83;95.49;100800.13;5096743;27;96744;-31
2022/12/09 06:06:38;;;;;;;0.88;0.77;;;;;;;0.78;95.69;100788.69;5096184;27;97632;-31
2022/12/09 06:09:07;;;;;;;2.10;1.65;;;;;;;0.77;95.54;100793.13;5096083;27;112354;-32
2022/12/09 06:11:32;;;;;;;1.63;1.23;;;;;;;0.78;95.33;100786.00;5096767;27;96650;-31
2022/12/09 06:13:57;;;;;;;1.83;1.10;;;;;;;0.75;95.29;100794.97;5096902;27;96738;-31
2022/12/09 06:16:23;;;;;;;1.02;0.95;;;;;;;0.70;95.40;100795.97;5096325;27;99270;-31
2022/12/09 06:18:49;;;;;;;2.60;2.05;;;;;;;0.70;94.99;100796.84;5096063;27;99177;-32
2022/12/09 06:21:16;;;;;;;4.10;1.85;;;;;;;0.69;95.08;100804.88;5096296;27;96964;-31
2022/12/09 06:23:42;;;;;;;4.03;1.40;;;;;;;0.66;95.44;100799.63;5077981;27;96876;-31
2022/12/09 06:26:15;;;;;;;2.63;1.67;;;;;;;0.59;95.49;100793.53;5077481;27;101353;-30
2022/12/09 06:28:40;;;;;;;2.00;1.23;;;;;;;0.58;95.23;100797.13;5077770;27;100930;-32
2022/12/09 06:31:05;;;;;;;2.67;1.65;;;;;;;0.56;95.47;100796.28;5096108;27;96478;-31
2022/12/09 06:33:31;;;;;;;1.88;1.50;;;;;;;0.59;95.47;100796.19;5096702;27;96748;-30
2022/12/09 06:36:01;;;;;;;1.58;1.27;;;;;;;0.54;95.20;100792.75;5096081;27;104874;-32
2022/12/09 06:38:26;;;;;;;3.47;1.92;;;;;;;0.55;95.41;100798.06;5077381;27;101666;-31
2022/12/09 06:40:51;;;;;;;1.90;1.27;;;;;;;0.50;95.40;100794.63;5096512;27;96596;-31
2022/12/09 06:43:16;;;;;;;2.78;1.48;;;;;;;0.48;95.42;100803.53;5096224;27;96810;-31
2022/12/09 06:45:42;;;;;;;3.08;1.20;;;;;;;0.46;95.25;100806.25;5095578;27;105064;-31
2022/12/09 06:48:07;;;;;;;1.45;1.33;;;;;;;0.47;95.14;100802.66;5096160;27;99068;-31
2022/12/09 06:50:32;;;;;;;1.50;1.17;;;;;;;0.41;95.07;100793.03;5096306;27;96508;-31
2022/12/09 06:52:58;;;;;;;2.03;1.52;;;;;;;0.40;95.34;100804.56;5096458;27;96753;-31
2022/12/09 06:55:23;;;;;;;3.40;2.40;;;;;;;0.39;95.54;100800.16;5095281;27;105790;-31
2022/12/09 06:57:48;;;;;;;0.55;0.55;;;;;;;0.41;95.44;100800.16;5095736;27;98805;-31
2022/12/09 07:00:14;;;;;;;2.35;1.67;;;;;;;0.39;95.29;100800.16;5096079;27;96710;-31
2022/12/09 07:02:40;;;;;;;4.05;1.52;;;;;;;0.39;95.01;100804.63;5077411;27;96814;-31
2022/12/09 07:05:05;;;;;;;1.88;1.42;;;;;;;0.38;95.23;100803.75;5096913;27;103066;-31
2022/12/09 07:07:31;;;;;;;3.22;1.63;;;;;;;0.35;95.34;100810.91;5099349;27;99111;-32
2022/12/09 07:09:56;;;;;;;3.00;1.70;;;;;;;0.35;95.46;100810.91;5099824;27;97080;-31
2022/12/09 07:12:22;;;;;;;3.42;1.88;;;;;;;0.31;95.17;100815.44;5100210;27;96763;-31
2022/12/09 07:14:47;;;;;;;1.38;1.15;;;;;;;0.30;95.38;100815.47;5099039;27;99300;-30
2022/12/09 07:17:15;;;;;;;3.88;2.00;;;;;;;0.31;95.04;100817.19;5099211;27;99129;-31
2022/12/09 07:19:41;;;;;;;2.33;1.83;;;;;;;0.26;95.28;100819.09;5080196;27;96562;-30
2022/12/09 07:22:06;;;;;;;2.53;2.05;;;;;;;0.25;95.24;100820.88;5078645;27;96812;-31
2022/12/09 07:24:31;;;;;;;3.55;2.38;;;;;;;0.25;95.56;100814.69;5078675;27;97433;-31
2022/12/09 07:26:57;;;;;;;2.33;1.70;;;;;;;0.20;95.38;100809.44;5078656;27;97350;-32
2022/12/09 07:29:22;;;;;;;5.57;2.60;;;;;;;0.17;95.41;100813.03;5078565;27;96687;-31
2022/12/09 07:31:48;;;;;;;1.75;1.63;;;;;;;0.22;95.39;100818.28;5078885;27;96744;-31
2022/12/09 07:34:13;;;;;;;2.08;1.30;;;;;;;0.22;95.17;100826.28;5078303;27;103902;-31
2022/12/09 07:36:39;;;;;;;4.32;2.78;;;;;;;0.18;94.96;100827.22;5078866;27;97280;-31
2022/12/09 07:39:08;;;;;;;3.38;2.08;;;;;;;0.18;95.20;100819.25;5077117;27;96594;-31
2022/12/09 07:41:34;;;;;;;5.05;1.80;;;;;;;0.18;94.75;100816.56;5077131;27;96840;-31
2022/12/09 07:43:59;;;;;;;1.70;1.58;;;;;;;0.18;95.50;100813.91;5077556;27;97699;-31
2022/12/09 07:46:27;;;;;;;1.98;1.23;;;;;;;0.15;95.17;100812.19;5078000;27;99499;-31
2022/12/09 07:48:54;;;;;;;2.17;1.40;;;;;;;0.19;94.98;100815.66;5077151;27;96786;-31
2022/12/09 07:51:20;;;;;;;3.17;2.53;;;;;;;0.18;94.95;100819.25;5077096;27;96809;-31
2022/12/09 07:53:46;;;;;;;2.92;2.58;;;;;;;0.18;94.55;100827.22;5078154;27;97934;-31
2022/12/09 07:56:13;;;;;;;3.63;2.45;;;;;;;0.14;94.97;100812.22;5078061;27;97860;-31
2022/12/09 07:58:39;;;;;;;1.30;1.17;;;;;;;0.13;94.79;100813.13;5076825;27;96787;-31
2022/12/09 08:01:14;;;;;;;1.65;1.25;;;;;;;0.14;94.95;100821.09;5077155;27;96793;-32
2022/12/09 08:03:41;;;;;;;2.28;1.48;;;;;;;0.13;94.96;100824.66;5076596;27;100826;-31
2022/12/09 08:06:07;;;;;;;1.25;1.17;;;;;;;0.09;95.00;100817.63;5076332;27;100961;-30
2022/12/09 08:08:32;;;;;;;1.80;1.50;;;;;;;0.13;95.09;100819.31;5076347;27;96694;-32
2022/12/09 08:11:09;;;;;;;4.63;2.00;;;;;;;0.12;94.89;100822.00;5077940;27;96751;-31
2022/12/09 08:13:35;;;;;;;1.80;1.65;;;;;;;0.15;95.10;100827.31;5076256;27;100869;-31
2022/12/09 08:16:05;;;;;;;3.17;2.25;;;;;;;0.10;94.99;100813.19;5076225;27;101436;-31
2022/12/09 08:18:32;;;;;;;2.42;1.58;;;;;;;0.13;95.20;100823.78;5076411;27;96795;-31
2022/12/09 08:20:57;;;;;;;2.47;1.67;;;;;;;0.12;94.80;100814.91;5076200;27;96984;-31
2022/12/09 08:23:23;;;;;;;3.67;2.78;;;;;;;0.15;94.83;100824.63;5089251;27;99229;-30
2022/12/09 08:25:53;;;;;;;3.42;2.80;;;;;;;0.14;94.74;100830.84;5097987;27;111664;-31
2022/12/09 08:28:20;;;;;;;6.13;2.22;;;;;;;0.15;94.97;100832.63;5098404;27;96530;-31
2022/12/09 08:30:46;;;;;;;2.83;2.35;;;;;;;0.15;95.28;100830.84;5079704;27;96760;-32
2022/12/09 08:33:11;;;;;;;3.72;2.35;;;;;;;0.21;95.08;100819.16;5098041;27;97071;-32
2022/12/09 08:35:37;;;;;;;2.92;2.40;;;;;;;0.21;95.00;100821.84;5097856;27;108712;-31
2022/12/09 08:38:02;;;;;;;3.47;2.72;;;;;;;0.20;94.74;100825.41;5098192;27;96465;-32
2022/12/09 08:40:27;;;;;;;4.15;2.92;;;;;;;0.23;94.75;100829.81;5098264;27;96833;-33
2022/12/09 08:42:53;;;;;;;3.88;2.13;;;;;;;0.22;94.74;100828.06;5097914;27;97964;-31
2022/12/09 08:45:18;;;;;;;3.97;2.45;;;;;;;0.23;94.74;100832.47;5097632;27;109039;-31
2022/12/09 08:47:43;;;;;;;2.78;1.77;;;;;;;0.24;95.17;100826.22;5098093;27;96650;-32
2022/12/09 08:50:09;;;;;;;3.75;3.03;;;;;;;0.26;95.19;100825.28;5098465;27;96769;-31
2022/12/09 08:52:35;;;;;;;1.95;1.45;;;;;;;0.28;95.28;100833.25;5097522;27;99105;-31
2022/12/09 08:55:00;;;;;;;1.70;1.50;;;;;;;0.28;95.04;100826.13;5097483;27;99217;-32
2022/12/09 08:57:27;;;;;;;2.13;1.90;;;;;;;0.34;95.64;100827.81;5097706;27;96835;-31
2022/12/09 08:59:53;;;;;;;7.35;3.00;;;;;;;0.41;95.20;100830.31;5098001;27;96729;-31
2022/12/09 09:02:18;;;;;;;5.95;2.63;;;;;;;0.42;95.35;100818.75;5078942;27;100942;-32
2022/12/09 09:04:44;;;;;;;4.25;2.45;;;;;;;0.47;95.50;100821.31;5097745;27;97505;-30
2022/12/09 09:07:10;;;;;;;3.58;2.28;;;;;;;0.49;95.42;100815.97;5098003;27;96474;-31
2022/12/09 09:09:36;;;;;;;2.60;2.17;;;;;;;0.50;95.18;100817.72;5079071;27;96964;-32
2022/12/09 09:12:01;;;;;;;1.70;1.60;;;;;;;0.54;95.38;100816.75;5097403;27;98806;-30
2022/12/09 09:14:26;;;;;;;1.63;1.45;;;;;;;0.58;95.38;100823.78;5097784;27;97854;-31
2022/12/09 09:16:52;;;;;;;2.10;1.75;;;;;;;0.58;95.71;100826.44;5097891;27;96628;-31
2022/12/09 09:19:20;;;;;;;2.67;1.67;;;;;;;0.62;95.61;100820.13;5097323;27;96911;-31
2022/12/09 09:21:45;;;;;;;3.70;2.83;;;;;;;0.65;95.88;100828.06;5078002;27;100944;-31
2022/12/09 09:24:15;;;;;;;2.45;2.13;;;;;;;0.72;95.61;100840.34;5096721;27;103902;-31
2022/12/09 09:26:41;;;;;;;4.50;2.25;;;;;;;0.75;95.10;100831.41;5097674;27;96511;-31
2022/12/09 09:29:11;;;;;;;1.83;1.33;;;;;;;0.75;95.17;100837.63;5096701;27;96873;-31
2022/12/09 09:31:36;;;;;;;2.00;1.83;;;;;;;0.81;95.71;100833.91;5078408;27;101426;-32
2022/12/09 09:34:02;;;;;;;3.85;2.50;;;;;;;0.88;95.34;100834.69;5097021;27;99105;-31
2022/12/09 09:36:28;;;;;;;10.73;4.32;;;;;;;0.89;95.83;100834.66;5097289;27;96605;-31
2022/12/09 09:38:54;;;;;;;2.88;1.85;;;;;;;0.97;95.61;100839.81;5097531;27;96837;-31
2022/12/09 09:42:00;;;;;;;5.55;3.25;;;;;;;1.01;95.73;100838.84;5078400;27;101298;-30
2022/12/09 09:44:46;;;;;;;4.88;2.67;;;;;;;1.06;95.82;100843.16;5077756;27;101389;-31
2022/12/09 09:47:43;;;;;;;2.63;1.63;;;;;;;1.14;95.40;100850.09;5096918;27;96447;-31
2022/12/09 09:50:23;;;;;;;2.30;1.88;;;;;;;1.20;95.30;100844.63;5077503;27;96862;-31
2022/12/09 09:52:52;;;;;;;2.65;2.28;;;;;;;1.28;95.31;100851.53;5078188;27;101292;-31
2022/12/09 09:55:31;;;;;;;8.70;3.75;;;;;;;1.38;95.29;100851.31;5078089;27;101064;-31
2022/12/09 09:58:05;;;;;;;4.10;2.35;;;;;;;1.46;94.97;100844.91;5096812;27;96592;-32
2022/12/09 10:00:42;;;;;;;4.03;2.35;;;;;;;1.54;94.60;100846.50;5078376;27;96564;-31
2022/12/09 10:03:19;;;;;;;6.43;3.55;;;;;;;1.62;94.55;100849.84;5096681;27;98072;-32
2022/12/09 10:05:57;;;;;;;3.20;2.53;;;;;;;1.62;94.43;100852.50;5096906;27;97760;-31
2022/12/09 10:08:25;;;;;;;2.90;2.05;;;;;;;1.67;94.53;100853.31;5078316;27;96546;-30
2022/12/09 10:11:13;;;;;;;11.10;3.83;;;;;;;1.72;94.76;100846.06;5097089;27;96842;-33
2022/12/09 10:14:07;;;;;;;6.38;2.80;;;;;;;1.86;94.23;100845.66;5077497;27;101149;-31
2022/12/09 10:17:29;;;;;;;2.00;1.65;;;;;;;1.98;94.30;100849.81;5086473;27;97978;-31
2022/12/09 10:20:11;;;;;;;1.90;1.57;;;;;;;2.08;93.84;100849.56;4976148;28;96681;-31
2022/12/09 10:22:43;;;;;;;4.60;2.20;;;;;;;2.22;93.53;100848.31;5096375;27;98368;-31
2022/12/09 10:25:23;;;;;;;8.63;3.35;;;;;;;2.38;92.93;100843.41;5096780;27;97442;-31
2022/12/09 10:28:10;;;;;;;5.30;2.95;;;;;;;2.53;92.45;100851.88;5096186;27;99178;-31
2022/12/09 10:30:36;;;;;;;4.20;2.63;;;;;;;2.66;92.25;100843.50;5096407;27;96564;-31
2022/12/09 10:33:02;;;;;;;5.38;2.53;;;;;;;2.76;91.83;100848.56;5096883;27;96779;-33
2022/12/09 10:35:29;;;;;;;2.42;1.63;;;;;;;3.05;91.30;100843.22;5096321;27;97920;-31
2022/12/09 10:38:03;;;;;;;4.30;2.58;;;;;;;3.23;89.99;100845.34;5077526;27;100693;-31
2022/12/09 10:40:31;;;;;;;4.45;2.35;;;;;;;3.46;89.26;100844.63;5076308;27;96757;-31
2022/12/09 10:45:53;;;;;;;5.43;2.58;;;;;;;3.71;87.83;100833.09;5096331;27;97038;-31
2022/12/09 10:48:32;;;;;;;4.85;3.40;;;;;;;3.92;87.01;100836.84;5077363;27;101109;-31
2022/12/09 10:51:13;;;;;;;5.15;3.83;;;;;;;4.13;86.56;100840.59;5096532;27;96559;-31
2022/12/09 10:53:54;;;;;;;4.65;2.45;;;;;;;4.38;85.82;100828.06;5077549;27;96773;-30
2022/12/09 10:56:29;;;;;;;6.35;3.28;;;;;;;4.62;84.88;100830.75;5077429;27;101025;-31
2022/12/09 10:59:08;;;;;;;8.10;2.05;;;;;;;4.61;84.77;100816.47;5077468;27;101398;-31
2022/12/09 11:01:46;;;;;;;4.72;3.33;;;;;;;4.31;84.75;100823.84;5077330;27;96591;-32
2022/12/09 11:04:12;;;;;;;3.40;2.28;;;;;;;4.18;85.35;100820.72;5096320;27;97008;-31
2022/12/09 11:06:40;;;;;;;3.83;2.97;;;;;;;4.06;85.93;100813.13;5095310;27;98382;-31
2022/12/09 11:09:05;;;;;;;5.22;3.15;;;;;;;4.03;85.88;100818.63;5076947;27;100746;-30
2022/12/09 11:11:48;;;;;;;4.38;2.58;;;;;;;3.95;85.72;100808.13;5095762;27;96535;-32
2022/12/09 11:14:24;;;;;;;3.45;1.92;;;;;;;4.13;86.25;100806.63;5077290;27;96755;-31
2022/12/09 11:16:52;;;;;;;7.97;3.60;;;;;;;4.12;85.63;100802.19;5077040;27;100986;-31
2022/12/09 11:19:27;;;;;;;7.18;3.65;;;;;;;3.79;85.74;100796.19;5076650;27;101247;-31
2022/12/09 11:22:13;;;;;;;4.13;2.85;;;;;;;3.68;87.51;100801.94;5077096;27;96628;-31
2022/12/09 11:24:42;;;;;;;5.88;2.60;;;;;;;3.66;88.44;100795.75;5096409;27;96553;-31
2022/12/09 11:27:29;;;;;;;5.97;3.78;;;;;;;3.62;87.50;100799.44;5076649;27;101438;-31
2022/12/09 11:30:04;;;;;;;2.70;2.45;;;;;;;3.62;88.10;100799.44;5095763;27;97875;-31
2022/12/09 11:32:30;;;;;;;4.55;2.35;;;;;;;3.64;88.46;100800.28;5076543;27;96573;-31
2022/12/09 11:34:55;;;;;;;4.50;3.17;;;;;;;3.66;88.57;100800.22;5095687;27;96738;-30
2022/12/09 11:37:21;;;;;;;5.63;2.70;;;;;;;3.65;88.16;100806.50;5095239;27;98948;-31
2022/12/09 11:39:51;;;;;;;6.00;3.70;;;;;;;3.68;88.38;100803.75;5076761;27;100878;-32
2022/12/09 11:42:21;;;;;;;4.50;1.67;;;;;;;3.74;88.77;100806.19;5076900;27;96668;-31